This is the latest recevied weather packets stored in our database for station/object N0KWA. If no packets are shown the sender has not sent any weather packets the latest 10 day(s).
| Time | Temp. | Humidity | Pressure | Rain* | Wind** | Luminosity | Snow |
|---|---|---|---|---|---|---|---|
| 1777918076 | 25.56° C | 45% | 1018.7 hPa | 0 mm | - | 874 W/m² | - |
| 1777917774 | 25.56° C | 48% | 1018.9 hPa | 0 mm | - | 862 W/m² | - |
| 1777917471 | 25° C | 49% | 1019 hPa | 0 mm | - | 892 W/m² | - |
| 1777917168 | 25° C | 51% | 1018.8 hPa | 0 mm | - | 469 W/m² | - |
| 1777916866 | 24.44° C | 50% | 1019.1 hPa | 0 mm | - | 833 W/m² | - |
| 1777916563 | 24.44° C | 52% | 1019.1 hPa | 0 mm | - | 622 W/m² | - |
| 1777916260 | 24.44° C | 50% | 1018.9 hPa | 0 mm | - | 34 W/m² | - |
| 1777915957 | 24.44° C | 52% | 1018.9 hPa | 0 mm | - | 105 W/m² | - |
| 1777915653 | 24.44° C | 51% | 1018.9 hPa | 0 mm | - | 192 W/m² | - |
| 1777915350 | 25° C | 52% | 1018.9 hPa | 0 mm | - | 38 W/m² | - |
| 1777915046 | 24.44° C | 54% | 1019 hPa | 0 mm | - | 32 W/m² | - |
| 1777914743 | 23.89° C | 52% | 1019 hPa | 0 mm | - | 31 W/m² | - |
| 1777914440 | 24.44° C | 49% | 1019.2 hPa | 0 mm | - | 31 W/m² | - |
| 1777914138 | 24.44° C | 53% | 1019.2 hPa | 0 mm | - | 32 W/m² | - |
| 1777913834 | 23.89° C | 51% | 1019.2 hPa | 0 mm | - | 30 W/m² | - |
| 1777913530 | 23.89° C | 50% | 1019.5 hPa | 0 mm | - | 31 W/m² | - |
| 1777913227 | 23.89° C | 50% | 1019.5 hPa | 0 mm | - | 30 W/m² | - |
| 1777912924 | 23.89° C | 50% | 1019.7 hPa | 0 mm | - | 30 W/m² | - |
| 1777912620 | 23.89° C | 57% | 1019.4 hPa | 0 mm | - | 42 W/m² | - |
| 1777912316 | 23.33° C | 52% | 1019.6 hPa | 0 mm | - | 31 W/m² | - |
| 1777912012 | 23.89° C | 52% | 1019.7 hPa | 0 mm | - | 27 W/m² | - |
| 1777911708 | 23.33° C | 53% | 1019.7 hPa | 0 mm | - | 29 W/m² | - |
| 1777911404 | 23.33° C | 52% | 1019.7 hPa | 0 mm | - | 27 W/m² | - |
| 1777911102 | 22.78° C | 49% | 1019.8 hPa | 0 mm | - | 27 W/m² | - |
| 1777910799 | 22.78° C | 54% | 1019.9 hPa | 0 mm | - | 26 W/m² | - |
* Rain latest hour (hover to see other rain measurements)
** Current wind speed in m/s (hover to see current wind gust speed)